Terminal Aerodrome Forecast
Issued by NWS

Home | Current Version | Previous Version | Text Only | Print | Product List | Glossary On
Versions: 1 2 3 4 5 6 7 8 9 10 11 12 13 14 15 16 17 18
000
FTUS45 KVEF 040206 AAA
TAFDAG
TAF AMD
KDAG 040206Z 0402/0424 08006KT P6SM SCT150 BKN250
     FM040300 24016KT P6SM FEW150 BKN250
     FM040800 27010KT P6SM BKN250
     FM041700 30010KT P6SM BKN250=

USA.gov is the U.S. government's official web portal to all federal, state and local government web resources and services.